sensor_id;sensor_type;location;lat;lon;timestamp;P1;durP1;ratioP1;P2;durP2;ratioP2
76053;SDS011;64752;48.870;9.082;2023-06-01T00:00:29;10.63;;;3.83;;
76053;SDS011;64752;48.870;9.082;2023-06-01T00:02:54;7.72;;;3.38;;
76053;SDS011;64752;48.870;9.082;2023-06-01T00:05:20;7.97;;;3.25;;
76053;SDS011;64752;48.870;9.082;2023-06-01T00:07:45;6.97;;;3.33;;
76053;SDS011;64752;48.870;9.082;2023-06-01T00:10:11;8.55;;;3.60;;
76053;SDS011;64752;48.870;9.082;2023-06-01T00:12:36;7.05;;;3.42;;
76053;SDS011;64752;48.870;9.082;2023-06-01T00:15:02;9.18;;;3.33;;
76053;SDS011;64752;48.870;9.082;2023-06-01T00:17:28;7.75;;;3.35;;
76053;SDS011;64752;48.870;9.082;2023-06-01T00:19:55;8.57;;;3.28;;
76053;SDS011;64752;48.870;9.082;2023-06-01T00:22:20;7.40;;;3.47;;
76053;SDS011;64752;48.870;9.082;2023-06-01T00:24:46;11.63;;;3.40;;
76053;SDS011;64752;48.870;9.082;2023-06-01T00:27:11;5.88;;;3.00;;
76053;SDS011;64752;48.870;9.082;2023-06-01T00:29:37;7.90;;;3.40;;
76053;SDS011;64752;48.870;9.082;2023-06-01T00:32:02;10.00;;;3.63;;
76053;SDS011;64752;48.870;9.082;2023-06-01T00:34:27;8.50;;;3.58;;
76053;SDS011;64752;48.870;9.082;2023-06-01T00:36:53;9.68;;;3.13;;
76053;SDS011;64752;48.870;9.082;2023-06-01T00:39:18;6.15;;;3.50;;
76053;SDS011;64752;48.870;9.082;2023-06-01T00:41:43;10.63;;;3.30;;
76053;SDS011;64752;48.870;9.082;2023-06-01T00:44:09;8.07;;;3.42;;
76053;SDS011;64752;48.870;9.082;2023-06-01T00:46:34;11.23;;;4.05;;
76053;SDS011;64752;48.870;9.082;2023-06-01T00:49:02;9.75;;;2.97;;
76053;SDS011;64752;48.870;9.082;2023-06-01T00:51:27;6.35;;;3.20;;
76053;SDS011;64752;48.870;9.082;2023-06-01T00:53:53;5.22;;;3.17;;
76053;SDS011;64752;48.870;9.082;2023-06-01T00:56:18;8.20;;;3.25;;
76053;SDS011;64752;48.870;9.082;2023-06-01T00:58:43;8.60;;;3.50;;
76053;SDS011;64752;48.870;9.082;2023-06-01T01:01:09;8.48;;;3.17;;
76053;SDS011;64752;48.870;9.082;2023-06-01T01:03:43;9.68;;;3.25;;
76053;SDS011;64752;48.870;9.082;2023-06-01T01:06:16;6.75;;;3.45;;
76053;SDS011;64752;48.870;9.082;2023-06-01T01:11:35;9.02;;;3.95;;
76053;SDS011;64752;48.870;9.082;2023-06-01T01:14:08;9.20;;;3.40;;
76053;SDS011;64752;48.870;9.082;2023-06-01T01:21:57;8.20;;;3.30;;
76053;SDS011;64752;48.870;9.082;2023-06-01T01:30:29;12.52;;;4.57;;
76053;SDS011;64752;48.870;9.082;2023-06-01T01:32:56;9.65;;;3.83;;
76053;SDS011;64752;48.870;9.082;2023-06-01T01:35:23;12.90;;;4.82;;
76053;SDS011;64752;48.870;9.082;2023-06-01T01:37:51;6.68;;;4.10;;
76053;SDS011;64752;48.870;9.082;2023-06-01T01:40:17;9.50;;;4.20;;
76053;SDS011;64752;48.870;9.082;2023-06-01T01:42:43;9.57;;;3.92;;
76053;SDS011;64752;48.870;9.082;2023-06-01T01:45:08;9.38;;;4.15;;
76053;SDS011;64752;48.870;9.082;2023-06-01T01:47:36;7.32;;;3.83;;
76053;SDS011;64752;48.870;9.082;2023-06-01T01:50:14;10.30;;;4.10;;
76053;SDS011;64752;48.870;9.082;2023-06-01T01:52:43;8.20;;;4.28;;
76053;SDS011;64752;48.870;9.082;2023-06-01T01:55:10;11.68;;;4.50;;
76053;SDS011;64752;48.870;9.082;2023-06-01T01:57:36;7.43;;;4.18;;
76053;SDS011;64752;48.870;9.082;2023-06-01T02:00:03;10.27;;;4.50;;
76053;SDS011;64752;48.870;9.082;2023-06-01T02:02:31;8.93;;;4.15;;
76053;SDS011;64752;48.870;9.082;2023-06-01T02:04:56;7.90;;;4.05;;
76053;SDS011;64752;48.870;9.082;2023-06-01T02:07:22;7.47;;;3.97;;
76053;SDS011;64752;48.870;9.082;2023-06-01T02:09:48;10.77;;;4.38;;
76053;SDS011;64752;48.870;9.082;2023-06-01T02:12:13;9.57;;;4.50;;
76053;SDS011;64752;48.870;9.082;2023-06-01T02:14:39;9.55;;;3.97;;
76053;SDS011;64752;48.870;9.082;2023-06-01T02:17:04;6.88;;;3.90;;
76053;SDS011;64752;48.870;9.082;2023-06-01T02:19:30;7.57;;;4.32;;
76053;SDS011;64752;48.870;9.082;2023-06-01T02:21:56;15.18;;;4.20;;
76053;SDS011;64752;48.870;9.082;2023-06-01T02:24:22;11.88;;;4.65;;
76053;SDS011;64752;48.870;9.082;2023-06-01T02:26:47;8.43;;;4.40;;
76053;SDS011;64752;48.870;9.082;2023-06-01T02:29:19;9.80;;;4.43;;
76053;SDS011;64752;48.870;9.082;2023-06-01T02:31:47;11.02;;;4.10;;
76053;SDS011;64752;48.870;9.082;2023-06-01T02:34:17;8.45;;;4.05;;
76053;SDS011;64752;48.870;9.082;2023-06-01T02:36:42;11.52;;;4.50;;
76053;SDS011;64752;48.870;9.082;2023-06-01T02:39:08;7.90;;;4.38;;
76053;SDS011;64752;48.870;9.082;2023-06-01T02:41:33;8.95;;;3.95;;
76053;SDS011;64752;48.870;9.082;2023-06-01T02:43:59;10.25;;;3.85;;
76053;SDS011;64752;48.870;9.082;2023-06-01T02:46:24;8.35;;;4.55;;
76053;SDS011;64752;48.870;9.082;2023-06-01T02:48:50;11.40;;;4.35;;
76053;SDS011;64752;48.870;9.082;2023-06-01T02:51:16;9.73;;;4.05;;
76053;SDS011;64752;48.870;9.082;2023-06-01T02:53:43;6.78;;;3.83;;
76053;SDS011;64752;48.870;9.082;2023-06-01T02:56:09;7.15;;;3.88;;
76053;SDS011;64752;48.870;9.082;2023-06-01T02:58:35;8.75;;;4.10;;
76053;SDS011;64752;48.870;9.082;2023-06-01T03:01:01;6.53;;;4.57;;
76053;SDS011;64752;48.870;9.082;2023-06-01T03:03:27;12.27;;;5.28;;
76053;SDS011;64752;48.870;9.082;2023-06-01T03:05:52;10.52;;;5.10;;
76053;SDS011;64752;48.870;9.082;2023-06-01T03:08:18;9.90;;;5.03;;
76053;SDS011;64752;48.870;9.082;2023-06-01T03:10:44;8.48;;;4.95;;
76053;SDS011;64752;48.870;9.082;2023-06-01T03:13:10;8.32;;;4.60;;
76053;SDS011;64752;48.870;9.082;2023-06-01T03:15:35;14.38;;;5.20;;
76053;SDS011;64752;48.870;9.082;2023-06-01T03:18:02;9.40;;;4.72;;
76053;SDS011;64752;48.870;9.082;2023-06-01T03:20:28;9.70;;;4.87;;
76053;SDS011;64752;48.870;9.082;2023-06-01T03:22:53;9.85;;;5.00;;
76053;SDS011;64752;48.870;9.082;2023-06-01T03:25:19;9.27;;;4.95;;
76053;SDS011;64752;48.870;9.082;2023-06-01T03:27:44;7.95;;;4.38;;
76053;SDS011;64752;48.870;9.082;2023-06-01T03:30:10;11.73;;;5.25;;
76053;SDS011;64752;48.870;9.082;2023-06-01T03:32:37;12.75;;;4.95;;
76053;SDS011;64752;48.870;9.082;2023-06-01T03:35:03;10.18;;;4.80;;
76053;SDS011;64752;48.870;9.082;2023-06-01T03:37:29;10.75;;;4.97;;
76053;SDS011;64752;48.870;9.082;2023-06-01T03:39:54;9.80;;;4.85;;
76053;SDS011;64752;48.870;9.082;2023-06-01T03:42:20;10.23;;;4.70;;
76053;SDS011;64752;48.870;9.082;2023-06-01T03:44:45;8.27;;;4.50;;
76053;SDS011;64752;48.870;9.082;2023-06-01T03:47:11;10.60;;;4.50;;
76053;SDS011;64752;48.870;9.082;2023-06-01T03:49:38;8.98;;;4.38;;
76053;SDS011;64752;48.870;9.082;2023-06-01T03:52:04;9.95;;;4.35;;
76053;SDS011;64752;48.870;9.082;2023-06-01T03:54:29;9.20;;;3.97;;
76053;SDS011;64752;48.870;9.082;2023-06-01T03:56:55;9.60;;;4.78;;
76053;SDS011;64752;48.870;9.082;2023-06-01T03:59:21;7.60;;;4.13;;
76053;SDS011;64752;48.870;9.082;2023-06-01T04:01:46;12.30;;;4.10;;
76053;SDS011;64752;48.870;9.082;2023-06-01T04:04:13;8.75;;;4.68;;
76053;SDS011;64752;48.870;9.082;2023-06-01T04:06:41;10.38;;;4.53;;
76053;SDS011;64752;48.870;9.082;2023-06-01T04:09:10;8.68;;;4.40;;
76053;SDS011;64752;48.870;9.082;2023-06-01T04:11:36;8.52;;;4.30;;
76053;SDS011;64752;48.870;9.082;2023-06-01T04:14:01;7.28;;;3.72;;
76053;SDS011;64752;48.870;9.082;2023-06-01T04:16:27;8.65;;;3.90;;
76053;SDS011;64752;48.870;9.082;2023-06-01T04:18:53;7.05;;;3.67;;
76053;SDS011;64752;48.870;9.082;2023-06-01T04:21:21;9.25;;;3.80;;
76053;SDS011;64752;48.870;9.082;2023-06-01T04:23:47;10.07;;;4.05;;
76053;SDS011;64752;48.870;9.082;2023-06-01T04:26:13;8.70;;;3.63;;
76053;SDS011;64752;48.870;9.082;2023-06-01T04:28:39;6.63;;;3.35;;
76053;SDS011;64752;48.870;9.082;2023-06-01T04:31:08;6.95;;;3.20;;
76053;SDS011;64752;48.870;9.082;2023-06-01T04:33:41;6.88;;;3.53;;
76053;SDS011;64752;48.870;9.082;2023-06-01T04:36:11;6.32;;;3.25;;
76053;SDS011;64752;48.870;9.082;2023-06-01T04:38:39;7.00;;;3.55;;
76053;SDS011;64752;48.870;9.082;2023-06-01T04:41:06;6.55;;;3.65;;
76053;SDS011;64752;48.870;9.082;2023-06-01T04:43:32;9.38;;;4.00;;
76053;SDS011;64752;48.870;9.082;2023-06-01T04:45:57;7.50;;;3.27;;
76053;SDS011;64752;48.870;9.082;2023-06-01T04:48:28;8.68;;;3.42;;
76053;SDS011;64752;48.870;9.082;2023-06-01T04:50:55;7.70;;;3.03;;
76053;SDS011;64752;48.870;9.082;2023-06-01T04:53:22;7.22;;;2.95;;
76053;SDS011;64752;48.870;9.082;2023-06-01T04:55:48;6.77;;;3.47;;
76053;SDS011;64752;48.870;9.082;2023-06-01T04:58:13;8.83;;;3.47;;
76053;SDS011;64752;48.870;9.082;2023-06-01T05:00:38;6.63;;;2.80;;
76053;SDS011;64752;48.870;9.082;2023-06-01T05:03:05;7.47;;;3.10;;
76053;SDS011;64752;48.870;9.082;2023-06-01T05:05:30;6.93;;;3.00;;
76053;SDS011;64752;48.870;9.082;2023-06-01T05:07:55;6.60;;;3.00;;
76053;SDS011;64752;48.870;9.082;2023-06-01T05:10:21;5.80;;;2.77;;
76053;SDS011;64752;48.870;9.082;2023-06-01T05:12:46;4.73;;;2.57;;
76053;SDS011;64752;48.870;9.082;2023-06-01T05:15:12;6.67;;;3.17;;
76053;SDS011;64752;48.870;9.082;2023-06-01T05:17:38;10.23;;;2.85;;
76053;SDS011;64752;48.870;9.082;2023-06-01T05:20:04;5.13;;;2.83;;
76053;SDS011;64752;48.870;9.082;2023-06-01T05:24:55;7.43;;;3.00;;
76053;SDS011;64752;48.870;9.082;2023-06-01T05:27:21;6.30;;;2.60;;
76053;SDS011;64752;48.870;9.082;2023-06-01T05:29:47;5.03;;;2.73;;
76053;SDS011;64752;48.870;9.082;2023-06-01T05:32:12;4.23;;;2.57;;
76053;SDS011;64752;48.870;9.082;2023-06-01T05:34:37;10.00;;;2.40;;
76053;SDS011;64752;48.870;9.082;2023-06-01T05:37:03;7.10;;;2.60;;
76053;SDS011;64752;48.870;9.082;2023-06-01T05:39:28;6.60;;;2.60;;
76053;SDS011;64752;48.870;9.082;2023-06-01T05:41:54;5.70;;;2.50;;
76053;SDS011;64752;48.870;9.082;2023-06-01T05:44:20;6.57;;;2.65;;
76053;SDS011;64752;48.870;9.082;2023-06-01T05:46:45;6.30;;;2.77;;
76053;SDS011;64752;48.870;9.082;2023-06-01T05:49:11;7.00;;;3.20;;
76053;SDS011;64752;48.870;9.082;2023-06-01T05:51:36;7.80;;;2.80;;
76053;SDS011;64752;48.870;9.082;2023-06-01T05:54:03;7.35;;;2.80;;
76053;SDS011;64752;48.870;9.082;2023-06-01T05:58:54;7.03;;;2.88;;
76053;SDS011;64752;48.870;9.082;2023-06-01T06:01:20;7.83;;;3.03;;
76053;SDS011;64752;48.870;9.082;2023-06-01T06:03:45;12.83;;;2.90;;
76053;SDS011;64752;48.870;9.082;2023-06-01T06:06:10;7.83;;;2.70;;
76053;SDS011;64752;48.870;9.082;2023-06-01T06:08:36;6.37;;;2.40;;
76053;SDS011;64752;48.870;9.082;2023-06-01T06:11:02;4.57;;;2.47;;
76053;SDS011;64752;48.870;9.082;2023-06-01T06:13:27;7.63;;;2.77;;
76053;SDS011;64752;48.870;9.082;2023-06-01T06:15:52;4.53;;;2.43;;
76053;SDS011;64752;48.870;9.082;2023-06-01T06:18:18;5.25;;;2.63;;
76053;SDS011;64752;48.870;9.082;2023-06-01T06:20:44;7.43;;;2.60;;
76053;SDS011;64752;48.870;9.082;2023-06-01T06:23:10;7.47;;;2.40;;
76053;SDS011;64752;48.870;9.082;2023-06-01T06:25:36;6.20;;;2.23;;
76053;SDS011;64752;48.870;9.082;2023-06-01T06:28:01;7.20;;;2.60;;
76053;SDS011;64752;48.870;9.082;2023-06-01T06:30:28;8.48;;;3.03;;
76053;SDS011;64752;48.870;9.082;2023-06-01T06:32:53;6.63;;;2.63;;
76053;SDS011;64752;48.870;9.082;2023-06-01T06:35:18;8.23;;;2.57;;
76053;SDS011;64752;48.870;9.082;2023-06-01T06:37:44;9.35;;;2.90;;
76053;SDS011;64752;48.870;9.082;2023-06-01T06:40:10;6.20;;;2.67;;
76053;SDS011;64752;48.870;9.082;2023-06-01T06:42:36;5.78;;;2.60;;
76053;SDS011;64752;48.870;9.082;2023-06-01T06:45:01;5.63;;;2.70;;
76053;SDS011;64752;48.870;9.082;2023-06-01T06:47:27;8.52;;;2.47;;
76053;SDS011;64752;48.870;9.082;2023-06-01T06:49:53;6.50;;;2.57;;
76053;SDS011;64752;48.870;9.082;2023-06-01T06:52:18;6.43;;;2.92;;
76053;SDS011;64752;48.870;9.082;2023-06-01T06:54:43;8.07;;;2.43;;
76053;SDS011;64752;48.870;9.082;2023-06-01T06:57:09;6.10;;;2.50;;
76053;SDS011;64752;48.870;9.082;2023-06-01T06:59:35;10.57;;;2.50;;
76053;SDS011;64752;48.870;9.082;2023-06-01T07:02:01;5.38;;;2.58;;
76053;SDS011;64752;48.870;9.082;2023-06-01T07:04:28;7.43;;;2.90;;
76053;SDS011;64752;48.870;9.082;2023-06-01T07:06:54;6.80;;;2.58;;
76053;SDS011;64752;48.870;9.082;2023-06-01T07:09:19;7.38;;;3.17;;
76053;SDS011;64752;48.870;9.082;2023-06-01T07:11:45;6.05;;;2.40;;
76053;SDS011;64752;48.870;9.082;2023-06-01T07:14:12;6.22;;;2.65;;
76053;SDS011;64752;48.870;9.082;2023-06-01T07:16:38;7.00;;;2.65;;
76053;SDS011;64752;48.870;9.082;2023-06-01T07:19:03;7.90;;;2.87;;
76053;SDS011;64752;48.870;9.082;2023-06-01T07:21:28;4.20;;;2.53;;
76053;SDS011;64752;48.870;9.082;2023-06-01T07:23:54;7.05;;;2.70;;
76053;SDS011;64752;48.870;9.082;2023-06-01T07:26:20;4.93;;;2.90;;
76053;SDS011;64752;48.870;9.082;2023-06-01T07:28:48;4.43;;;2.25;;
76053;SDS011;64752;48.870;9.082;2023-06-01T07:31:13;5.10;;;2.53;;
76053;SDS011;64752;48.870;9.082;2023-06-01T07:36:05;4.93;;;2.83;;
76053;SDS011;64752;48.870;9.082;2023-06-01T07:40:56;4.13;;;2.43;;
76053;SDS011;64752;48.870;9.082;2023-06-01T07:43:21;7.45;;;2.90;;
76053;SDS011;64752;48.870;9.082;2023-06-01T07:48:12;8.87;;;3.10;;
76053;SDS011;64752;48.870;9.082;2023-06-01T07:50:37;5.97;;;3.00;;
76053;SDS011;64752;48.870;9.082;2023-06-01T07:55:28;10.43;;;3.08;;
76053;SDS011;64752;48.870;9.082;2023-06-01T08:00:19;5.57;;;2.83;;
76053;SDS011;64752;48.870;9.082;2023-06-01T08:02:45;7.00;;;3.05;;
76053;SDS011;64752;48.870;9.082;2023-06-01T08:05:10;7.07;;;2.78;;
76053;SDS011;64752;48.870;9.082;2023-06-01T08:07:36;7.95;;;3.20;;
76053;SDS011;64752;48.870;9.082;2023-06-01T08:10:03;6.38;;;3.03;;
76053;SDS011;64752;48.870;9.082;2023-06-01T08:12:32;6.93;;;3.05;;
76053;SDS011;64752;48.870;9.082;2023-06-01T08:14:58;11.77;;;3.05;;
76053;SDS011;64752;48.870;9.082;2023-06-01T08:17:23;8.57;;;3.33;;
76053;SDS011;64752;48.870;9.082;2023-06-01T08:19:49;3.67;;;2.55;;
76053;SDS011;64752;48.870;9.082;2023-06-01T08:22:15;5.25;;;2.80;;
76053;SDS011;64752;48.870;9.082;2023-06-01T08:24:41;4.82;;;2.58;;
76053;SDS011;64752;48.870;9.082;2023-06-01T08:29:42;8.73;;;3.33;;
76053;SDS011;64752;48.870;9.082;2023-06-01T08:32:08;9.35;;;3.15;;
76053;SDS011;64752;48.870;9.082;2023-06-01T08:34:34;7.32;;;3.85;;
76053;SDS011;64752;48.870;9.082;2023-06-01T08:37:00;4.93;;;2.90;;
76053;SDS011;64752;48.870;9.082;2023-06-01T08:39:25;5.28;;;2.80;;
76053;SDS011;64752;48.870;9.082;2023-06-01T08:41:53;6.22;;;3.08;;
76053;SDS011;64752;48.870;9.082;2023-06-01T08:44:35;6.45;;;3.40;;
76053;SDS011;64752;48.870;9.082;2023-06-01T08:47:03;8.23;;;3.47;;
76053;SDS011;64752;48.870;9.082;2023-06-01T08:49:30;5.45;;;3.10;;
76053;SDS011;64752;48.870;9.082;2023-06-01T08:51:57;7.32;;;3.17;;
76053;SDS011;64752;48.870;9.082;2023-06-01T08:54:25;7.50;;;3.40;;
76053;SDS011;64752;48.870;9.082;2023-06-01T08:56:51;6.80;;;3.70;;
76053;SDS011;64752;48.870;9.082;2023-06-01T08:59:17;5.13;;;3.17;;
76053;SDS011;64752;48.870;9.082;2023-06-01T09:01:42;6.65;;;3.30;;
76053;SDS011;64752;48.870;9.082;2023-06-01T09:04:08;6.10;;;3.33;;
76053;SDS011;64752;48.870;9.082;2023-06-01T09:06:34;6.13;;;3.30;;
76053;SDS011;64752;48.870;9.082;2023-06-01T09:09:01;9.27;;;3.08;;
76053;SDS011;64752;48.870;9.082;2023-06-01T09:11:27;7.78;;;3.75;;
76053;SDS011;64752;48.870;9.082;2023-06-01T09:13:53;6.70;;;3.10;;
76053;SDS011;64752;48.870;9.082;2023-06-01T09:16:18;7.07;;;3.13;;
76053;SDS011;64752;48.870;9.082;2023-06-01T09:18:52;8.82;;;3.22;;
76053;SDS011;64752;48.870;9.082;2023-06-01T09:21:18;6.43;;;3.00;;
76053;SDS011;64752;48.870;9.082;2023-06-01T09:23:43;7.70;;;3.53;;
76053;SDS011;64752;48.870;9.082;2023-06-01T09:26:10;5.40;;;2.90;;
76053;SDS011;64752;48.870;9.082;2023-06-01T09:31:36;11.98;;;3.38;;
76053;SDS011;64752;48.870;9.082;2023-06-01T09:34:04;9.80;;;3.72;;
76053;SDS011;64752;48.870;9.082;2023-06-01T09:36:30;6.60;;;3.35;;
76053;SDS011;64752;48.870;9.082;2023-06-01T09:39:00;12.02;;;3.90;;
76053;SDS011;64752;48.870;9.082;2023-06-01T09:41:49;7.68;;;3.22;;
76053;SDS011;64752;48.870;9.082;2023-06-01T09:46:54;8.27;;;3.40;;
76053;SDS011;64752;48.870;9.082;2023-06-01T09:49:22;9.88;;;3.58;;
76053;SDS011;64752;48.870;9.082;2023-06-01T09:51:50;6.40;;;3.33;;
76053;SDS011;64752;48.870;9.082;2023-06-01T09:57:04;8.48;;;3.30;;
76053;SDS011;64752;48.870;9.082;2023-06-01T09:59:41;5.97;;;3.60;;
76053;SDS011;64752;48.870;9.082;2023-06-01T10:02:18;7.05;;;3.40;;
76053;SDS011;64752;48.870;9.082;2023-06-01T10:04:52;8.07;;;3.42;;
76053;SDS011;64752;48.870;9.082;2023-06-01T10:07:19;10.70;;;3.67;;
76053;SDS011;64752;48.870;9.082;2023-06-01T10:09:47;6.10;;;3.78;;
76053;SDS011;64752;48.870;9.082;2023-06-01T10:12:15;5.68;;;3.30;;
76053;SDS011;64752;48.870;9.082;2023-06-01T10:14:40;8.50;;;3.83;;
76053;SDS011;64752;48.870;9.082;2023-06-01T10:17:06;6.85;;;3.85;;
76053;SDS011;64752;48.870;9.082;2023-06-01T10:19:32;7.82;;;3.88;;
76053;SDS011;64752;48.870;9.082;2023-06-01T10:22:00;9.52;;;4.13;;
76053;SDS011;64752;48.870;9.082;2023-06-01T10:24:28;9.48;;;3.88;;
76053;SDS011;64752;48.870;9.082;2023-06-01T10:26:58;7.97;;;3.95;;
76053;SDS011;64752;48.870;9.082;2023-06-01T10:29:28;7.15;;;3.85;;
76053;SDS011;64752;48.870;9.082;2023-06-01T10:31:55;7.80;;;3.70;;
76053;SDS011;64752;48.870;9.082;2023-06-01T10:34:40;7.97;;;3.72;;
76053;SDS011;64752;48.870;9.082;2023-06-01T10:39:34;7.30;;;3.40;;
76053;SDS011;64752;48.870;9.082;2023-06-01T10:52:26;5.68;;;3.33;;
76053;SDS011;64752;48.870;9.082;2023-06-01T10:54:52;7.68;;;3.60;;
76053;SDS011;64752;48.870;9.082;2023-06-01T10:57:21;4.43;;;3.13;;
76053;SDS011;64752;48.870;9.082;2023-06-01T11:02:42;8.32;;;3.70;;
76053;SDS011;64752;48.870;9.082;2023-06-01T11:18:41;5.45;;;3.55;;
76053;SDS011;64752;48.870;9.082;2023-06-01T11:21:18;4.72;;;3.15;;
76053;SDS011;64752;48.870;9.082;2023-06-01T11:23:49;6.68;;;3.58;;
76053;SDS011;64752;48.870;9.082;2023-06-01T11:26:17;4.35;;;3.05;;
76053;SDS011;64752;48.870;9.082;2023-06-01T11:28:45;8.98;;;3.50;;
76053;SDS011;64752;48.870;9.082;2023-06-01T11:31:12;5.25;;;3.17;;
76053;SDS011;64752;48.870;9.082;2023-06-01T11:33:41;7.60;;;3.35;;
76053;SDS011;64752;48.870;9.082;2023-06-01T11:36:12;9.60;;;3.50;;
76053;SDS011;64752;48.870;9.082;2023-06-01T11:38:39;6.85;;;3.28;;
76053;SDS011;64752;48.870;9.082;2023-06-01T11:41:06;6.18;;;3.58;;
76053;SDS011;64752;48.870;9.082;2023-06-01T11:43:32;6.70;;;3.25;;
76053;SDS011;64752;48.870;9.082;2023-06-01T11:46:02;8.77;;;3.85;;
76053;SDS011;64752;48.870;9.082;2023-06-01T11:48:28;5.80;;;3.42;;
76053;SDS011;64752;48.870;9.082;2023-06-01T11:50:54;8.40;;;4.10;;
76053;SDS011;64752;48.870;9.082;2023-06-01T11:53:23;7.18;;;3.30;;
76053;SDS011;64752;48.870;9.082;2023-06-01T11:55:49;6.50;;;3.28;;
76053;SDS011;64752;48.870;9.082;2023-06-01T11:58:19;5.78;;;3.20;;
76053;SDS011;64752;48.870;9.082;2023-06-01T12:00:55;5.88;;;3.28;;
76053;SDS011;64752;48.870;9.082;2023-06-01T12:03:22;11.77;;;3.70;;
76053;SDS011;64752;48.870;9.082;2023-06-01T12:05:50;6.82;;;3.28;;
76053;SDS011;64752;48.870;9.082;2023-06-01T12:10:46;5.82;;;3.50;;
76053;SDS011;64752;48.870;9.082;2023-06-01T12:13:13;6.97;;;3.70;;
76053;SDS011;64752;48.870;9.082;2023-06-01T12:15:40;6.25;;;3.35;;
76053;SDS011;64752;48.870;9.082;2023-06-01T12:18:05;7.47;;;3.30;;
76053;SDS011;64752;48.870;9.082;2023-06-01T12:20:31;4.90;;;3.05;;
76053;SDS011;64752;48.870;9.082;2023-06-01T12:23:00;9.00;;;3.60;;
76053;SDS011;64752;48.870;9.082;2023-06-01T12:25:28;5.75;;;3.25;;
76053;SDS011;64752;48.870;9.082;2023-06-01T12:28:07;7.68;;;3.35;;
76053;SDS011;64752;48.870;9.082;2023-06-01T12:30:35;7.65;;;3.50;;
76053;SDS011;64752;48.870;9.082;2023-06-01T12:33:01;5.68;;;3.30;;
76053;SDS011;64752;48.870;9.082;2023-06-01T12:35:29;4.68;;;3.17;;
76053;SDS011;64752;48.870;9.082;2023-06-01T12:38:08;8.95;;;3.30;;
76053;SDS011;64752;48.870;9.082;2023-06-01T12:40:35;9.48;;;3.55;;
76053;SDS011;64752;48.870;9.082;2023-06-01T12:43:02;6.72;;;3.22;;
76053;SDS011;64752;48.870;9.082;2023-06-01T12:45:36;7.22;;;3.55;;
76053;SDS011;64752;48.870;9.082;2023-06-01T12:48:02;13.60;;;3.40;;
76053;SDS011;64752;48.870;9.082;2023-06-01T12:50:28;6.43;;;3.28;;
76053;SDS011;64752;48.870;9.082;2023-06-01T12:52:54;7.20;;;3.50;;
76053;SDS011;64752;48.870;9.082;2023-06-01T12:55:19;6.07;;;3.13;;
76053;SDS011;64752;48.870;9.082;2023-06-01T13:00:16;6.30;;;3.10;;
76053;SDS011;64752;48.870;9.082;2023-06-01T13:02:42;9.82;;;3.17;;
76053;SDS011;64752;48.870;9.082;2023-06-01T13:05:08;5.55;;;2.58;;
76053;SDS011;64752;48.870;9.082;2023-06-01T13:07:34;5.43;;;3.08;;
76053;SDS011;64752;48.870;9.082;2023-06-01T13:10:00;5.20;;;3.05;;
76053;SDS011;64752;48.870;9.082;2023-06-01T13:12:26;7.28;;;3.05;;
76053;SDS011;64752;48.870;9.082;2023-06-01T13:14:52;9.73;;;3.10;;
76053;SDS011;64752;48.870;9.082;2023-06-01T13:17:17;5.88;;;3.00;;
76053;SDS011;64752;48.870;9.082;2023-06-01T13:19:43;5.88;;;2.95;;
76053;SDS011;64752;48.870;9.082;2023-06-01T13:22:08;9.32;;;3.03;;
76053;SDS011;64752;48.870;9.082;2023-06-01T13:24:34;6.55;;;2.95;;
76053;SDS011;64752;48.870;9.082;2023-06-01T13:26:59;5.70;;;3.05;;
76053;SDS011;64752;48.870;9.082;2023-06-01T13:29:25;5.60;;;3.00;;
76053;SDS011;64752;48.870;9.082;2023-06-01T13:31:50;4.95;;;2.75;;
76053;SDS011;64752;48.870;9.082;2023-06-01T13:34:16;6.80;;;2.90;;
76053;SDS011;64752;48.870;9.082;2023-06-01T13:36:45;11.60;;;2.80;;
76053;SDS011;64752;48.870;9.082;2023-06-01T13:39:11;7.25;;;2.40;;
76053;SDS011;64752;48.870;9.082;2023-06-01T13:41:37;7.20;;;2.40;;
76053;SDS011;64752;48.870;9.082;2023-06-01T13:44:04;5.38;;;2.50;;
76053;SDS011;64752;48.870;9.082;2023-06-01T13:46:29;5.10;;;2.33;;
76053;SDS011;64752;48.870;9.082;2023-06-01T13:48:55;6.13;;;2.53;;
76053;SDS011;64752;48.870;9.082;2023-06-01T13:51:20;5.73;;;2.47;;
76053;SDS011;64752;48.870;9.082;2023-06-01T13:53:47;4.10;;;1.95;;
76053;SDS011;64752;48.870;9.082;2023-06-01T13:56:13;5.07;;;2.45;;
76053;SDS011;64752;48.870;9.082;2023-06-01T13:58:39;4.57;;;2.10;;
76053;SDS011;64752;48.870;9.082;2023-06-01T14:01:04;8.80;;;2.45;;
76053;SDS011;64752;48.870;9.082;2023-06-01T14:03:30;9.95;;;2.90;;
76053;SDS011;64752;48.870;9.082;2023-06-01T14:05:55;5.53;;;2.28;;
76053;SDS011;64752;48.870;9.082;2023-06-01T14:08:21;5.82;;;2.58;;
76053;SDS011;64752;48.870;9.082;2023-06-01T14:10:46;3.65;;;1.90;;
76053;SDS011;64752;48.870;9.082;2023-06-01T14:13:12;6.07;;;2.40;;
76053;SDS011;64752;48.870;9.082;2023-06-01T14:15:37;5.60;;;1.75;;
76053;SDS011;64752;48.870;9.082;2023-06-01T14:18:02;4.65;;;2.30;;
76053;SDS011;64752;48.870;9.082;2023-06-01T14:20:28;4.25;;;2.10;;
76053;SDS011;64752;48.870;9.082;2023-06-01T14:22:54;6.30;;;1.95;;
76053;SDS011;64752;48.870;9.082;2023-06-01T14:25:19;5.07;;;1.90;;
76053;SDS011;64752;48.870;9.082;2023-06-01T14:27:45;3.33;;;1.80;;
76053;SDS011;64752;48.870;9.082;2023-06-01T14:30:11;4.93;;;1.88;;
76053;SDS011;64752;48.870;9.082;2023-06-01T14:32:36;3.42;;;1.70;;
76053;SDS011;64752;48.870;9.082;2023-06-01T14:35:01;4.57;;;2.00;;
76053;SDS011;64752;48.870;9.082;2023-06-01T14:37:27;5.00;;;2.03;;
76053;SDS011;64752;48.870;9.082;2023-06-01T14:39:52;3.05;;;1.90;;
76053;SDS011;64752;48.870;9.082;2023-06-01T14:42:19;3.65;;;1.90;;
76053;SDS011;64752;48.870;9.082;2023-06-01T14:44:45;2.40;;;1.65;;
76053;SDS011;64752;48.870;9.082;2023-06-01T14:49:36;4.20;;;2.00;;
76053;SDS011;64752;48.870;9.082;2023-06-01T14:52:02;4.20;;;2.25;;
76053;SDS011;64752;48.870;9.082;2023-06-01T14:54:28;5.87;;;2.07;;
76053;SDS011;64752;48.870;9.082;2023-06-01T14:56:53;4.07;;;1.93;;
76053;SDS011;64752;48.870;9.082;2023-06-01T14:59:19;5.47;;;2.17;;
76053;SDS011;64752;48.870;9.082;2023-06-01T15:01:44;4.07;;;2.03;;
76053;SDS011;64752;48.870;9.082;2023-06-01T15:04:10;3.83;;;1.80;;
76053;SDS011;64752;48.870;9.082;2023-06-01T15:06:36;4.90;;;2.00;;
76053;SDS011;64752;48.870;9.082;2023-06-01T15:09:02;3.08;;;1.83;;
76053;SDS011;64752;48.870;9.082;2023-06-01T15:13:53;4.10;;;2.05;;
76053;SDS011;64752;48.870;9.082;2023-06-01T15:16:19;4.37;;;2.07;;
76053;SDS011;64752;48.870;9.082;2023-06-01T15:18:44;6.23;;;2.60;;
76053;SDS011;64752;48.870;9.082;2023-06-01T15:21:10;4.43;;;2.17;;
76053;SDS011;64752;48.870;9.082;2023-06-01T15:23:35;4.73;;;2.07;;
76053;SDS011;64752;48.870;9.082;2023-06-01T15:26:00;6.77;;;2.30;;
76053;SDS011;64752;48.870;9.082;2023-06-01T15:28:26;3.30;;;1.90;;
76053;SDS011;64752;48.870;9.082;2023-06-01T15:30:52;5.57;;;1.90;;
76053;SDS011;64752;48.870;9.082;2023-06-01T15:33:17;10.63;;;1.90;;
76053;SDS011;64752;48.870;9.082;2023-06-01T15:35:42;6.10;;;2.00;;
76053;SDS011;64752;48.870;9.082;2023-06-01T15:38:08;3.00;;;1.60;;
76053;SDS011;64752;48.870;9.082;2023-06-01T15:40:33;4.27;;;2.00;;
76053;SDS011;64752;48.870;9.082;2023-06-01T15:42:58;3.20;;;1.70;;
76053;SDS011;64752;48.870;9.082;2023-06-01T15:45:24;4.00;;;1.70;;
76053;SDS011;64752;48.870;9.082;2023-06-01T15:47:50;2.55;;;1.95;;
76053;SDS011;64752;48.870;9.082;2023-06-01T15:50:15;4.10;;;1.97;;
76053;SDS011;64752;48.870;9.082;2023-06-01T15:52:41;3.93;;;1.90;;
76053;SDS011;64752;48.870;9.082;2023-06-01T15:55:06;3.67;;;2.03;;
76053;SDS011;64752;48.870;9.082;2023-06-01T15:57:32;6.32;;;1.95;;
76053;SDS011;64752;48.870;9.082;2023-06-01T15:59:58;3.53;;;1.83;;
76053;SDS011;64752;48.870;9.082;2023-06-01T16:02:23;2.83;;;1.80;;